Time;durP1;ratioP1;P1;durP2;ratioP2;P2;SDS_P1;SDS_P2;PMS_P1;PMS_P2;Temp;Humidity;BMP_temperature;BMP_pressure;BME280_temperature;BME280_humidity;BME280_pressure;Samples;Min_cycle;Max_cycle;Signal;HPM_P1;HPM_P2
2022/02/02 00:00:20;;;;;;;1.10;0.98;;;7.80;97.40;;;;;;5061217;28;20349;-49
2022/02/02 00:02:57;;;;;;;0.70;0.70;;;7.80;97.50;;;;;;5057021;28;20055;-49
2022/02/02 00:05:30;;;;;;;1.50;1.23;;;7.80;97.40;;;;;;5054291;28;20531;-49
2022/02/02 00:08:13;;;;;;;0.50;0.50;;;7.80;97.40;;;;;;5058529;28;20033;-49
2022/02/02 00:21:17;;;;;;;0.63;0.63;;;7.80;97.40;;;;;;5059147;28;20043;-49
2022/02/02 00:23:46;;;;;;;1.08;0.95;;;7.80;97.30;;;;;;5054854;28;20029;-49
2022/02/02 00:26:18;;;;;;;0.50;0.50;;;7.80;97.40;;;;;;5060518;28;20174;-49
2022/02/02 00:28:49;;;;;;;1.52;0.93;;;7.80;97.40;;;;;;5062271;28;20024;-49
2022/02/02 00:31:21;;;;;;;1.20;0.90;;;7.80;97.40;;;;;;5056228;28;20090;-49
2022/02/02 00:33:53;;;;;;;1.08;0.90;;;7.80;97.40;;;;;;5054817;28;20029;-49
2022/02/02 00:36:23;;;;;;;0.38;0.38;;;7.80;97.40;;;;;;5052924;28;20029;-49
2022/02/02 00:38:49;;;;;;;0.80;0.80;;;7.80;97.60;;;;;;5061526;28;20112;-49
2022/02/02 00:41:15;;;;;;;0.60;0.60;;;7.80;97.30;;;;;;5061018;28;20478;-49
2022/02/02 00:43:45;;;;;;;1.02;0.77;;;7.80;97.50;;;;;;5060910;28;20028;-49
2022/02/02 00:46:10;;;;;;;0.73;0.73;;;7.80;97.50;;;;;;5056229;28;20052;-49
2022/02/02 00:48:36;;;;;;;0.70;0.70;;;7.80;97.50;;;;;;5051323;28;20110;-49
2022/02/02 00:51:03;;;;;;;0.68;0.68;;;7.80;97.40;;;;;;5058300;28;20135;-49
2022/02/02 00:53:28;;;;;;;0.25;0.25;;;7.80;97.50;;;;;;5055736;28;20045;-49
2022/02/02 00:55:55;;;;;;;1.08;0.85;;;7.80;97.40;;;;;;5058731;28;20455;-49
2022/02/02 00:58:21;;;;;;;0.28;0.28;;;7.80;97.40;;;;;;5059304;28;20056;-49
2022/02/02 01:00:47;;;;;;;0.80;0.80;;;7.80;97.50;;;;;;5057723;28;20037;-49
2022/02/02 01:03:13;;;;;;;0.60;0.60;;;7.80;97.50;;;;;;5055683;28;20025;-49
2022/02/02 01:05:39;;;;;;;3.53;0.95;;;7.80;97.40;;;;;;5056388;28;20086;-49
2022/02/02 01:10:59;;;;;;;0.70;0.63;;;7.80;97.50;;;;;;5056973;28;20051;-49
2022/02/02 01:17:07;;;;;;;0.75;0.70;;;7.80;97.60;;;;;;5054767;28;20039;-49
2022/02/02 01:19:03;;;;;;;0.70;0.70;;;7.80;97.60;;;;;;5056309;28;20505;-49
2022/02/02 01:21:43;;;;;;;0.65;0.63;;;7.80;97.60;;;;;;5054139;28;20045;-49
2022/02/02 01:29:37;;;;;;;0.80;0.80;;;7.80;97.60;;;;;;5061427;28;20094;-49
2022/02/02 01:32:03;;;;;;;0.93;0.77;;;7.80;97.60;;;;;;5055888;28;20442;-49
2022/02/02 01:34:29;;;;;;;2.47;1.13;;;7.80;97.70;;;;;;5055770;28;20389;-49
2022/02/02 01:36:54;;;;;;;0.55;0.55;;;7.80;97.70;;;;;;5059617;28;20058;-49
2022/02/02 01:39:25;;;;;;;3.50;1.30;;;7.80;97.70;;;;;;5056766;28;20036;-49
2022/02/02 01:41:50;;;;;;;0.90;0.85;;;7.80;97.80;;;;;;5056458;28;20076;-49
2022/02/02 01:44:26;;;;;;;1.35;1.25;;;7.90;97.80;;;;;;5059734;28;20064;-49
2022/02/02 01:46:53;;;;;;;0.90;0.70;;;7.80;97.70;;;;;;5056569;28;20068;-49
2022/02/02 01:52:20;;;;;;;0.68;0.63;;;7.90;97.70;;;;;;5057870;28;20064;-49
2022/02/02 01:59:57;;;;;;;3.80;0.70;;;7.80;97.70;;;;;;5055731;28;20043;-49
2022/02/02 02:02:23;;;;;;;1.05;1.00;;;7.80;97.80;;;;;;5056962;28;20104;-49
2022/02/02 02:04:49;;;;;;;0.85;0.80;;;7.80;97.80;;;;;;5055767;28;20423;-49
2022/02/02 02:07:15;;;;;;;0.95;0.80;;;7.80;97.90;;;;;;5055480;28;20038;-49
2022/02/02 02:09:41;;;;;;;1.48;1.25;;;7.80;97.80;;;;;;5057401;28;20054;-49
2022/02/02 02:12:09;;;;;;;0.70;0.70;;;7.90;97.90;;;;;;5053131;28;20116;-49
2022/02/02 02:17:13;;;;;;;0.55;0.55;;;7.80;97.80;;;;;;5061826;28;20107;-49
2022/02/02 02:19:43;;;;;;;0.90;0.88;;;7.90;97.90;;;;;;5054837;28;20124;-49
2022/02/02 02:22:12;;;;;;;1.13;0.90;;;7.80;97.80;;;;;;5054044;28;20056;-49
2022/02/02 02:24:40;;;;;;;0.93;0.73;;;7.90;98.00;;;;;;5057235;28;20021;-49
2022/02/02 02:27:06;;;;;;;1.65;0.98;;;7.80;98.00;;;;;;5058856;28;20033;-49
2022/02/02 02:29:47;;;;;;;0.73;0.73;;;7.90;98.00;;;;;;5058660;28;20469;-49
2022/02/02 02:56:13;;;;;;;3.47;1.02;;;7.90;98.20;;;;;;5063311;28;20469;-49
2022/02/02 02:58:44;;;;;;;1.65;0.65;;;7.90;98.20;;;;;;5062361;28;20039;-49
2022/02/02 03:55:06;;;;;;;1.67;1.15;;;7.90;98.30;;;;;;5060350;28;20412;-49
2022/02/02 04:02:50;;;;;;;4.53;1.25;;;7.90;98.40;;;;;;5061389;28;20031;-49
2022/02/02 04:05:39;;;;;;;10.25;1.27;;;7.90;98.40;;;;;;5055883;28;20029;-49
2022/02/02 04:08:22;;;;;;;8.20;1.50;;;7.90;98.40;;;;;;5060336;28;20029;-49
2022/02/02 04:10:48;;;;;;;2.78;1.40;;;7.90;98.40;;;;;;5060066;28;20028;-49
2022/02/02 04:13:26;;;;;;;11.70;1.77;;;7.90;98.50;;;;;;5059274;28;20033;-49
2022/02/02 04:56:53;;;;;;;12.18;2.10;;;7.90;98.40;;;;;;5058721;28;20036;-48
2022/02/02 05:06:59;;;;;;;5.45;1.52;;;7.90;98.50;;;;;;5057612;28;20061;-49
2022/02/02 05:17:20;;;;;;;4.22;0.98;;;7.90;98.60;;;;;;5058449;28;20028;-49
2022/02/02 05:29:16;;;;;;;9.98;1.08;;;7.90;98.60;;;;;;5056073;28;20374;-49
2022/02/02 05:52:05;;;;;;;8.63;1.30;;;7.90;98.70;;;;;;5052775;28;20341;-49
2022/02/02 05:54:31;;;;;;;14.45;2.22;;;7.90;98.60;;;;;;5056058;28;20268;-49
2022/02/02 05:56:58;;;;;;;11.07;2.35;;;7.90;98.70;;;;;;5057883;28;20174;-49
2022/02/02 05:59:25;;;;;;;6.38;1.02;;;7.90;98.70;;;;;;5061882;28;20012;-49
2022/02/02 06:01:54;;;;;;;14.00;1.83;;;7.90;98.60;;;;;;5055902;28;20470;-49
2022/02/02 06:04:27;;;;;;;12.50;2.63;;;7.90;98.60;;;;;;5059519;28;20063;-49
2022/02/02 06:06:55;;;;;;;7.60;1.60;;;7.90;98.70;;;;;;5060186;28;20037;-49
2022/02/02 06:09:24;;;;;;;2.58;1.20;;;7.90;98.60;;;;;;5059336;28;20021;-49
2022/02/02 06:11:51;;;;;;;3.63;1.27;;;7.90;98.70;;;;;;5057627;28;20017;-49
2022/02/02 06:14:25;;;;;;;4.57;2.03;;;7.90;98.70;;;;;;5059131;28;20128;-49
2022/02/02 06:16:53;;;;;;;14.20;1.45;;;7.90;98.60;;;;;;5054232;28;20453;-49
2022/02/02 06:19:19;;;;;;;12.80;1.67;;;7.90;98.70;;;;;;5063413;28;20036;-49
2022/02/02 06:21:58;;;;;;;7.47;1.08;;;7.90;98.70;;;;;;5057743;28;20041;-49
2022/02/02 06:24:32;;;;;;;3.50;1.60;;;7.90;98.70;;;;;;5062279;28;20029;-49
2022/02/02 06:27:06;;;;;;;12.30;1.75;;;7.90;98.60;;;;;;5065494;28;20033;-49
2022/02/02 06:29:42;;;;;;;7.32;2.00;;;7.90;98.70;;;;;;5060903;28;20025;-49
2022/02/02 06:32:14;;;;;;;7.85;1.65;;;7.90;98.70;;;;;;5057008;28;20039;-49
2022/02/02 06:34:46;;;;;;;21.25;2.30;;;7.90;98.60;;;;;;5064376;28;20087;-49
2022/02/02 06:37:13;;;;;;;5.43;0.90;;;7.90;98.70;;;;;;5063468;28;20601;-49
2022/02/02 06:39:41;;;;;;;6.57;1.60;;;7.90;98.60;;;;;;5063244;28;20021;-49
2022/02/02 06:42:09;;;;;;;13.43;2.53;;;7.90;98.60;;;;;;5061861;28;20072;-50
2022/02/02 06:44:41;;;;;;;8.65;1.60;;;7.90;98.70;;;;;;5066392;28;20327;-49
2022/02/02 06:47:08;;;;;;;5.28;1.42;;;7.90;98.70;;;;;;5063026;28;20339;-49
2022/02/02 06:49:35;;;;;;;11.85;2.45;;;7.90;98.70;;;;;;5063635;28;20559;-49
2022/02/02 06:52:10;;;;;;;8.05;1.65;;;7.90;98.60;;;;;;5065979;28;20052;-49
2022/02/02 06:54:53;;;;;;;3.72;1.20;;;7.90;98.70;;;;;;5067951;28;20032;-48
2022/02/02 06:58:10;;;;;;;9.38;1.67;;;7.90;98.70;;;;;;5064462;28;20413;-49
2022/02/02 07:01:34;;;;;;;1.65;1.20;;;7.90;98.60;;;;;;5067368;28;20053;-51
2022/02/02 07:03:53;;;;;;;4.75;1.15;;;7.90;98.50;;;;;;5070516;28;20033;-49
2022/02/02 07:06:37;;;;;;;4.38;1.33;;;7.90;98.50;;;;;;5062641;28;20348;-49
2022/02/02 07:09:33;;;;;;;5.18;1.15;;;7.90;98.70;;;;;;5066068;28;20509;-49
2022/02/02 07:12:17;;;;;;;6.78;1.52;;;7.90;98.50;;;;;;5069877;28;20138;-49
2022/02/02 07:15:14;;;;;;;7.00;1.20;;;7.90;98.60;;;;;;5072590;28;20500;-49
2022/02/02 07:18:06;;;;;;;5.65;1.67;;;7.90;98.60;;;;;;5071163;28;20025;-49
2022/02/02 07:20:49;;;;;;;9.82;1.08;;;7.90;98.60;;;;;;5072025;28;20037;-48
2022/02/02 07:28:55;;;;;;;2.92;1.10;;;7.90;98.70;;;;;;5071271;28;20067;-49
2022/02/02 07:35:33;;;;;;;3.90;1.45;;;7.90;98.50;;;;;;5078843;28;20048;-49
2022/02/02 07:37:36;;;;;;;10.55;1.40;;;7.90;98.60;;;;;;5073013;28;20032;-48
2022/02/02 07:40:05;;;;;;;9.02;1.15;;;7.90;98.70;;;;;;5077370;28;20033;-49
2022/02/02 07:42:32;;;;;;;4.18;1.20;;;7.90;98.60;;;;;;5073724;28;20035;-49
2022/02/02 07:45:07;;;;;;;7.20;1.20;;;7.90;98.60;;;;;;5073086;28;20041;-49
2022/02/02 07:47:38;;;;;;;7.85;1.50;;;7.90;98.60;;;;;;5068826;28;20511;-49
2022/02/02 07:50:05;;;;;;;10.32;1.60;;;7.90;98.60;;;;;;5074133;28;20040;-49
2022/02/02 07:52:32;;;;;;;8.70;2.40;;;7.90;98.60;;;;;;5069829;28;20454;-49
2022/02/02 07:55:01;;;;;;;8.85;2.30;;;7.90;98.60;;;;;;5071913;28;20032;-49
2022/02/02 07:57:28;;;;;;;8.98;1.63;;;7.90;98.60;;;;;;5076137;28;20028;-49
2022/02/02 07:59:58;;;;;;;11.20;2.03;;;7.90;98.60;;;;;;5077561;28;20032;-49
2022/02/02 08:02:42;;;;;;;12.55;1.58;;;7.90;98.60;;;;;;5069661;28;20048;-50
2022/02/02 08:05:11;;;;;;;5.47;0.88;;;7.90;98.80;;;;;;5071248;28;20036;-49
2022/02/02 08:07:42;;;;;;;5.18;1.60;;;8.00;98.60;;;;;;5072216;28;20029;-49
2022/02/02 08:10:22;;;;;;;7.45;1.60;;;8.00;98.60;;;;;;5072710;28;20064;-49
2022/02/02 08:15:15;;;;;;;5.65;2.22;;;8.00;98.60;;;;;;5071806;28;20442;-49
2022/02/02 08:17:42;;;;;;;4.40;1.13;;;7.90;98.60;;;;;;5075264;28;20024;-49
2022/02/02 08:20:08;;;;;;;8.07;1.67;;;7.90;98.70;;;;;;5075563;28;20033;-49
2022/02/02 08:22:34;;;;;;;5.50;1.58;;;8.00;98.70;;;;;;5065595;28;20170;-49
2022/02/02 08:25:00;;;;;;;5.38;1.42;;;8.00;98.60;;;;;;5075010;28;20108;-49
2022/02/02 08:27:25;;;;;;;8.48;2.22;;;8.00;98.60;;;;;;5068121;28;20020;-49
2022/02/02 08:29:53;;;;;;;11.73;2.10;;;8.00;98.50;;;;;;5075186;28;20024;-49
2022/02/02 08:32:19;;;;;;;4.78;1.42;;;8.00;98.60;;;;;;5068501;28;20099;-49
2022/02/02 08:34:48;;;;;;;17.30;2.85;;;8.00;98.70;;;;;;5074209;28;20112;-49
2022/02/02 08:37:14;;;;;;;14.00;2.72;;;8.00;98.60;;;;;;5068147;28;20025;-49
2022/02/02 08:42:09;;;;;;;8.40;1.95;;;8.00;98.70;;;;;;5070587;28;20363;-49
2022/02/02 08:47:26;;;;;;;1.25;0.75;;;8.00;98.60;;;;;;5093834;28;20071;-49
2022/02/02 08:49:56;;;;;;;7.13;1.92;;;8.00;98.70;;;;;;5095444;28;20311;-49
2022/02/02 08:52:32;;;;;;;9.35;1.67;;;8.00;98.70;;;;;;5086801;28;20044;-49
2022/02/02 08:55:04;;;;;;;5.32;1.70;;;8.00;98.70;;;;;;5091481;28;20036;-49
2022/02/02 08:57:43;;;;;;;8.15;2.42;;;8.00;98.70;;;;;;5090534;28;20030;-50
2022/02/02 09:00:12;;;;;;;8.30;1.43;;;8.00;98.70;;;;;;5089937;28;20056;-49
2022/02/02 09:02:41;;;;;;;11.98;1.50;;;8.10;98.70;;;;;;5087885;28;20121;-49
2022/02/02 09:05:25;;;;;;;6.40;2.33;;;8.10;98.70;;;;;;5091720;28;20040;-49
2022/02/02 09:07:51;;;;;;;4.05;1.30;;;8.10;98.70;;;;;;5088673;28;20501;-49
2022/02/02 09:19:59;;;;;;;10.48;1.63;;;8.10;98.80;;;;;;5088665;28;20043;-49
2022/02/02 09:24:21;;;;;;;7.22;1.33;;;8.10;98.80;;;;;;5044471;28;20044;-49
2022/02/02 09:35:00;;;;;;;7.40;1.15;;;8.10;98.90;;;;;;5079610;28;20462;-48
2022/02/02 09:37:27;;;;;;;8.25;1.95;;;8.10;98.80;;;;;;5070358;28;20034;-49
2022/02/02 09:40:25;;;;;;;6.13;2.05;;;8.10;98.90;;;;;;5070893;28;20028;-49
2022/02/02 09:42:53;;;;;;;6.70;1.27;;;8.10;98.90;;;;;;5071020;28;20037;-49
2022/02/02 09:45:20;;;;;;;4.03;1.55;;;8.10;98.90;;;;;;5069591;28;20303;-49
2022/02/02 09:47:56;;;;;;;8.90;1.83;;;8.20;98.90;;;;;;5063780;28;20279;-49
2022/02/02 09:50:29;;;;;;;17.00;2.03;;;8.20;98.90;;;;;;5068225;28;20412;-49
2022/02/02 09:52:59;;;;;;;3.70;1.20;;;8.20;99.00;;;;;;5065829;28;20085;-49
2022/02/02 10:01:01;;;;;;;4.47;1.10;;;8.20;98.90;;;;;;5067614;28;20028;-49
2022/02/02 10:03:51;;;;;;;9.90;1.30;;;8.20;98.90;;;;;;5068940;28;20034;-49
2022/02/02 10:06:40;;;;;;;4.00;1.88;;;8.20;99.00;;;;;;5066750;28;20666;-49
2022/02/02 10:14:26;;;;;;;7.47;1.38;;;8.20;99.00;;;;;;5070969;28;19962;-49
2022/02/02 10:16:52;;;;;;;8.90;1.25;;;8.20;99.10;;;;;;5070361;28;20033;-49
2022/02/02 10:19:22;;;;;;;8.80;1.65;;;8.20;99.00;;;;;;5071340;28;20020;-49
2022/02/02 10:21:48;;;;;;;3.17;1.20;;;8.30;99.20;;;;;;5065979;28;20040;-49
2022/02/02 10:24:14;;;;;;;6.63;2.40;;;8.30;99.20;;;;;;5065142;28;20127;-49
2022/02/02 10:26:51;;;;;;;10.15;2.55;;;8.20;99.20;;;;;;5070885;28;20078;-49
2022/02/02 10:29:18;;;;;;;4.72;1.48;;;8.30;99.30;;;;;;5071447;28;20459;-49
2022/02/02 10:31:46;;;;;;;9.88;2.20;;;8.30;99.30;;;;;;5068188;28;20466;-49
2022/02/02 10:34:14;;;;;;;7.80;1.73;;;8.30;99.30;;;;;;5072808;28;20543;-49
2022/02/02 10:36:40;;;;;;;9.63;2.03;;;8.30;99.30;;;;;;5071073;28;20033;-49
2022/02/02 10:39:14;;;;;;;2.33;1.63;;;8.30;99.30;;;;;;5069503;28;20029;-49
2022/02/02 10:41:57;;;;;;;4.95;1.60;;;8.30;99.30;;;;;;5071372;28;20032;-49
2022/02/02 10:44:38;;;;;;;8.57;1.60;;;8.30;99.20;;;;;;5068347;28;20043;-49
2022/02/02 10:47:25;;;;;;;7.95;1.67;;;8.30;99.40;;;;;;5069983;28;20391;-49
2022/02/02 10:50:10;;;;;;;4.47;1.65;;;8.30;99.40;;;;;;5075948;28;20062;-49
2022/02/02 10:53:00;;;;;;;17.10;1.60;;;8.40;99.60;;;;;;5056410;28;20079;-49
2022/02/02 10:55:49;;;;;;;8.00;1.42;;;8.40;99.50;;;;;;5072285;28;20072;-49
2022/02/02 11:01:08;;;;;;;10.93;1.50;;;8.40;99.50;;;;;;5073619;28;20045;-49
2022/02/02 11:09:05;;;;;;;7.65;1.73;;;8.40;99.50;;;;;;5067699;28;20027;-49
2022/02/02 11:11:31;;;;;;;12.65;2.67;;;8.40;99.40;;;;;;5070799;28;20353;-49
2022/02/02 11:14:07;;;;;;;8.52;2.38;;;8.40;99.50;;;;;;5073706;28;20024;-49
2022/02/02 11:16:35;;;;;;;13.75;1.88;;;8.40;99.50;;;;;;5076310;28;20465;-49
2022/02/02 11:19:02;;;;;;;14.23;1.92;;;8.40;99.60;;;;;;5066495;28;20052;-48
2022/02/02 11:21:32;;;;;;;7.50;1.67;;;8.40;99.70;;;;;;5073882;28;20024;-49
2022/02/02 11:23:59;;;;;;;8.00;1.13;;;8.40;99.70;;;;;;5064839;28;20469;-49
2022/02/02 11:26:45;;;;;;;11.68;1.52;;;8.40;99.70;;;;;;5065838;28;20029;-49
2022/02/02 11:29:38;;;;;;;9.32;1.95;;;8.40;99.70;;;;;;5069534;28;20360;-49
2022/02/02 11:32:14;;;;;;;12.52;2.35;;;8.40;99.70;;;;;;5067282;28;20021;-49
2022/02/02 11:34:40;;;;;;;11.55;2.35;;;8.40;99.70;;;;;;5065480;28;20392;-49
2022/02/02 11:37:08;;;;;;;7.35;2.55;;;8.50;99.70;;;;;;5069693;28;20017;-49
2022/02/02 11:39:43;;;;;;;9.70;1.27;;;8.50;99.60;;;;;;5063161;28;20030;-48
2022/02/02 11:42:55;;;;;;;8.75;1.90;;;8.50;99.60;;;;;;5067667;28;20040;-49
2022/02/02 11:45:56;;;;;;;12.70;2.38;;;8.50;99.80;;;;;;5069756;28;20035;-49
2022/02/02 11:48:40;;;;;;;5.15;1.25;;;8.50;99.90;;;;;;5067029;28;20033;-49
2022/02/02 11:51:07;;;;;;;13.48;2.05;;;8.50;99.70;;;;;;5068584;28;20485;-50
2022/02/02 11:53:50;;;;;;;18.55;1.90;;;8.50;99.70;;;;;;5067129;28;20032;-49
2022/02/02 11:56:18;;;;;;;8.73;1.77;;;8.50;99.80;;;;;;5070161;28;20128;-49
2022/02/02 11:58:44;;;;;;;3.70;1.67;;;8.50;99.80;;;;;;5075365;28;20028;-49
2022/02/02 12:01:19;;;;;;;8.15;1.65;;;8.50;99.80;;;;;;5069541;28;20037;-49
2022/02/02 12:11:59;;;;;;;6.38;1.77;;;8.50;99.90;;;;;;5070924;28;20031;-49
2022/02/02 12:21:00;;;;;;;15.38;1.45;;;8.60;99.90;;;;;;5071966;28;20062;-49
2022/02/02 12:45:14;;;;;;;9.10;1.83;;;8.80;99.90;;;;;;5072512;28;20386;-49
2022/02/02 12:47:51;;;;;;;7.88;1.80;;;8.80;99.90;;;;;;5071851;28;20029;-49
2022/02/02 12:53:33;;;;;;;6.50;1.58;;;8.80;99.90;;;;;;5069331;28;20366;-49
2022/02/02 12:53:45;;;;;;;16.95;2.80;;;8.80;99.90;;;;;;5063453;28;20362;-49
2022/02/02 12:58:48;;;;;;;6.75;1.67;;;8.90;99.90;;;;;;5072665;28;20028;-49
2022/02/02 13:01:19;;;;;;;8.82;1.50;;;8.80;99.90;;;;;;5067948;28;20040;-49
2022/02/02 13:03:46;;;;;;;11.07;2.63;;;8.80;99.90;;;;;;5067436;28;20450;-49
2022/02/02 13:06:14;;;;;;;5.10;1.42;;;8.90;99.90;;;;;;5066470;28;20078;-49
2022/02/02 13:08:41;;;;;;;16.08;2.03;;;8.90;99.90;;;;;;5065400;28;20028;-50
2022/02/02 13:11:07;;;;;;;7.63;2.25;;;8.90;99.90;;;;;;5065326;28;20040;-49
2022/02/02 13:13:33;;;;;;;13.32;2.28;;;8.90;99.90;;;;;;5068987;28;20025;-49
2022/02/02 13:16:16;;;;;;;13.57;2.22;;;8.90;99.90;;;;;;5067311;28;20435;-49
2022/02/02 13:18:48;;;;;;;11.73;2.33;;;8.90;99.90;;;;;;5064158;28;20117;-49
2022/02/02 13:26:44;;;;;;;4.63;1.60;;;8.90;99.90;;;;;;5063322;28;20035;-49
2022/02/02 13:29:33;;;;;;;14.13;1.80;;;8.90;99.90;;;;;;5065108;28;20140;-50
2022/02/02 13:48:04;;;;;;;6.80;1.50;;;9.00;99.90;;;;;;5070068;28;20036;-49
2022/02/02 14:11:45;;;;;;;8.95;1.30;;;9.00;99.90;;;;;;5068292;28;20450;-49
2022/02/02 14:33:22;;;;;;;3.55;1.05;;;8.90;99.90;;;;;;5064475;28;20354;-49
2022/02/02 14:35:49;;;;;;;3.28;1.17;;;9.00;99.90;;;;;;5064866;28;20029;-50
2022/02/02 14:38:17;;;;;;;4.97;1.42;;;9.00;99.90;;;;;;5065958;28;20024;-49
2022/02/02 14:43:22;;;;;;;7.30;1.60;;;8.90;99.90;;;;;;5068214;28;20028;-49
2022/02/02 14:45:52;;;;;;;3.40;1.23;;;8.90;99.90;;;;;;5071980;28;20037;-49
2022/02/02 14:51:31;;;;;;;8.70;1.40;;;8.90;99.90;;;;;;5076039;28;19912;-49
2022/02/02 15:29:37;;;;;;;3.67;1.30;;;8.90;99.80;;;;;;5066837;28;20012;-49
2022/02/02 15:32:03;;;;;;;12.88;2.00;;;8.90;99.70;;;;;;5061806;28;20049;-49
2022/02/02 15:34:38;;;;;;;7.30;1.60;;;8.90;99.80;;;;;;5068735;28;20541;-49
2022/02/02 15:39:34;;;;;;;4.63;1.75;;;8.90;99.70;;;;;;5069088;28;20016;-49
2022/02/02 15:42:40;;;;;;;4.22;1.80;;;8.90;99.70;;;;;;5071221;28;20044;-49
2022/02/02 15:58:13;;;;;;;7.85;1.83;;;8.90;99.60;;;;;;5066805;28;20028;-49
2022/02/02 16:03:36;;;;;;;9.90;2.42;;;8.80;99.50;;;;;;5064493;28;20025;-49
2022/02/02 16:06:17;;;;;;;2.42;1.38;;;8.90;99.50;;;;;;5061881;28;20459;-49
2022/02/02 16:08:45;;;;;;;3.20;1.42;;;8.80;99.50;;;;;;5069266;28;20044;-49
2022/02/02 16:13:50;;;;;;;5.07;1.30;;;8.80;99.80;;;;;;5072224;28;20440;-49
2022/02/02 16:37:36;;;;;;;7.22;2.38;;;8.80;99.40;;;;;;5067510;28;20030;-49
2022/02/02 16:40:05;;;;;;;8.43;1.98;;;8.80;99.40;;;;;;5069713;28;20032;-49
2022/02/02 16:45:18;;;;;;;5.82;2.13;;;8.70;99.40;;;;;;5074729;28;20075;-49
2022/02/02 16:47:44;;;;;;;2.00;1.10;;;8.70;99.30;;;;;;5071130;28;20029;-49
2022/02/02 16:50:19;;;;;;;2.15;1.17;;;8.70;99.40;;;;;;5072643;28;20051;-49
2022/02/02 16:52:48;;;;;;;5.32;2.00;;;8.70;99.30;;;;;;5070766;28;20028;-49
2022/02/02 16:55:27;;;;;;;4.28;1.63;;;8.70;99.30;;;;;;5072418;28;20029;-49
2022/02/02 16:58:03;;;;;;;5.28;1.33;;;8.70;99.30;;;;;;5069985;28;20390;-49
2022/02/02 17:30:27;;;;;;;5.05;1.63;;;8.60;99.40;;;;;;5056494;28;20031;-49
2022/02/02 17:33:07;;;;;;;16.27;4.35;;;8.60;99.40;;;;;;5057405;28;20052;-49
2022/02/02 18:12:32;;;;;;;17.55;2.90;;;8.60;99.40;;;;;;5056976;28;20036;-49
2022/02/02 18:20:31;;;;;;;16.55;3.97;;;8.60;99.40;;;;;;5063462;28;20064;-49
2022/02/02 18:23:06;;;;;;;13.65;5.43;;;8.50;99.40;;;;;;5058294;28;20115;-49
2022/02/02 18:25:42;;;;;;;9.30;3.03;;;8.50;99.40;;;;;;5062637;28;20606;-49
2022/02/02 18:28:16;;;;;;;7.63;2.50;;;8.60;99.40;;;;;;5064641;28;20032;-49
2022/02/02 18:30:56;;;;;;;9.77;2.95;;;8.50;99.40;;;;;;5063080;28;20031;-49
2022/02/02 18:35:57;;;;;;;11.68;2.45;;;8.50;99.40;;;;;;5067623;28;20032;-49
2022/02/02 18:47:15;;;;;;;3.72;2.42;;;8.50;99.50;;;;;;5068949;28;20032;-49
2022/02/02 19:55:25;;;;;;;5.15;2.95;;;8.40;99.60;;;;;;5069635;28;20032;-49
2022/02/02 20:06:08;;;;;;;6.55;2.63;;;8.40;99.60;;;;;;5060669;28;20024;-49
2022/02/02 20:08:40;;;;;;;8.20;2.60;;;8.40;99.60;;;;;;5061052;28;20584;-49
2022/02/02 20:11:09;;;;;;;10.15;3.67;;;8.40;99.60;;;;;;5065345;28;20107;-49
2022/02/02 20:13:36;;;;;;;7.95;3.25;;;8.40;99.50;;;;;;5062019;28;20020;-49
2022/02/02 20:16:03;;;;;;;6.55;2.22;;;8.40;99.60;;;;;;5068383;28;20513;-49
2022/02/02 20:18:31;;;;;;;4.53;2.30;;;8.40;99.50;;;;;;5069620;28;20029;-49
2022/02/02 20:20:59;;;;;;;8.75;2.55;;;8.40;99.50;;;;;;5077066;28;20549;-49
2022/02/02 20:23:26;;;;;;;5.50;3.22;;;8.40;99.60;;;;;;5069983;28;20047;-49
2022/02/02 20:25:54;;;;;;;6.47;2.40;;;8.40;99.50;;;;;;5071780;28;20461;-49
2022/02/02 20:28:20;;;;;;;7.68;2.95;;;8.40;99.50;;;;;;5072424;28;20048;-49
2022/02/02 20:30:46;;;;;;;6.25;3.22;;;8.40;99.50;;;;;;5076732;28;20481;-49
2022/02/02 20:33:12;;;;;;;6.88;2.85;;;8.40;99.50;;;;;;5072657;28;20461;-49
2022/02/02 20:35:38;;;;;;;15.00;3.15;;;8.40;99.50;;;;;;5072499;28;20028;-49
2022/02/02 20:38:03;;;;;;;7.55;3.17;;;8.30;99.50;;;;;;5055390;28;20489;-49
2022/02/02 20:40:29;;;;;;;8.65;3.83;;;8.40;99.50;;;;;;5057999;28;20358;-49
2022/02/02 20:43:06;;;;;;;3.30;2.63;;;8.40;99.50;;;;;;5052958;28;20451;-49
2022/02/02 21:10:26;;;;;;;5.05;1.88;;;8.30;99.60;;;;;;5061529;28;20164;-49
2022/02/02 21:15:37;;;;;;;3.28;2.28;;;8.30;99.60;;;;;;5062681;28;20400;-49
2022/02/02 21:18:10;;;;;;;3.10;2.33;;;8.30;99.60;;;;;;5060645;28;20021;-49
2022/02/02 21:20:50;;;;;;;3.72;2.50;;;8.30;99.60;;;;;;5060087;28;20028;-49
2022/02/02 21:26:12;;;;;;;4.95;2.28;;;8.30;99.90;;;;;;5060794;28;20035;-49
2022/02/02 21:28:36;;;;;;;2.95;1.95;;;8.30;99.60;;;;;;5054398;28;20037;-49
2022/02/02 21:31:03;;;;;;;7.93;2.33;;;8.30;99.60;;;;;;5060848;28;20068;-49
2022/02/02 21:33:29;;;;;;;4.70;2.45;;;8.30;99.60;;;;;;5060521;28;20028;-49
2022/02/02 21:35:56;;;;;;;9.48;2.60;;;8.30;99.60;;;;;;5059635;28;20028;-49
2022/02/02 21:40:57;;;;;;;5.90;3.15;;;8.30;99.60;;;;;;5057095;28;20021;-49
2022/02/02 21:43:25;;;;;;;4.97;2.50;;;8.30;99.60;;;;;;5055997;28;20124;-49
2022/02/02 21:45:51;;;;;;;5.70;2.22;;;8.30;99.60;;;;;;5062166;28;20024;-49
2022/02/02 21:48:17;;;;;;;7.10;2.95;;;8.30;99.70;;;;;;5059799;28;20358;-49
2022/02/02 21:50:52;;;;;;;4.47;2.05;;;8.30;99.60;;;;;;5061183;28;20033;-49
2022/02/02 21:53:17;;;;;;;4.50;2.75;;;8.30;99.70;;;;;;5059505;28;20409;-49
2022/02/02 21:55:43;;;;;;;9.07;2.25;;;8.30;99.60;;;;;;5060165;28;20029;-49
2022/02/02 21:58:10;;;;;;;4.45;1.92;;;8.30;99.60;;;;;;5057819;28;20064;-49
2022/02/02 22:00:36;;;;;;;3.30;1.77;;;8.30;99.60;;;;;;5060353;28;20120;-49
2022/02/02 22:03:02;;;;;;;9.77;2.80;;;8.30;99.70;;;;;;5057310;28;20150;-49
2022/02/02 22:05:27;;;;;;;11.75;3.20;;;8.30;99.60;;;;;;5053903;28;20036;-49
2022/02/02 22:07:53;;;;;;;3.53;2.00;;;8.20;99.60;;;;;;5059893;28;20086;-49
2022/02/02 22:10:20;;;;;;;2.40;1.63;;;8.30;99.70;;;;;;5060127;28;20025;-49
2022/02/02 22:12:45;;;;;;;5.47;1.80;;;8.30;99.70;;;;;;5052632;28;20037;-49
2022/02/02 22:15:17;;;;;;;4.50;2.33;;;8.30;99.70;;;;;;5057428;28;20040;-49
2022/02/02 22:17:44;;;;;;;5.60;2.28;;;8.30;99.70;;;;;;5059565;28;20029;-49
2022/02/02 22:20:13;;;;;;;2.83;1.60;;;8.30;99.70;;;;;;5061477;28;20039;-49
2022/02/02 22:22:40;;;;;;;2.08;1.38;;;8.30;99.70;;;;;;5056989;28;20036;-49
2022/02/02 22:25:07;;;;;;;4.57;1.90;;;8.30;99.70;;;;;;5060091;28;20028;-49
2022/02/02 22:27:33;;;;;;;3.40;1.67;;;8.30;99.70;;;;;;5058986;28;20056;-49
2022/02/02 22:29:58;;;;;;;5.38;1.50;;;8.30;99.70;;;;;;5056593;28;20055;-49
2022/02/02 22:32:24;;;;;;;3.15;1.95;;;8.30;99.70;;;;;;5058696;28;20120;-49
2022/02/02 22:34:50;;;;;;;4.70;2.83;;;8.30;99.70;;;;;;5058747;28;20029;-49
2022/02/02 22:37:15;;;;;;;2.45;1.92;;;8.30;99.70;;;;;;5061310;28;20111;-49
2022/02/02 22:39:43;;;;;;;2.20;1.77;;;8.30;99.70;;;;;;5060861;28;20043;-49
2022/02/02 22:42:11;;;;;;;8.32;2.88;;;8.30;99.70;;;;;;5055889;28;20051;-49
2022/02/02 22:44:37;;;;;;;2.75;2.45;;;8.30;99.70;;;;;;5055341;28;20032;-49
2022/02/02 22:47:05;;;;;;;4.70;2.50;;;8.30;99.70;;;;;;5059177;28;20029;-49
2022/02/02 22:49:33;;;;;;;7.22;3.00;;;8.30;99.70;;;;;;5058582;28;20417;-49
2022/02/02 22:51:59;;;;;;;6.25;2.47;;;8.30;99.70;;;;;;5058256;28;20367;-49
2022/02/02 22:54:25;;;;;;;5.63;2.35;;;8.30;99.70;;;;;;5056418;28;20025;-49
2022/02/02 22:56:50;;;;;;;3.42;2.25;;;8.30;99.70;;;;;;5060327;28;20032;-49
2022/02/02 22:59:16;;;;;;;4.47;2.22;;;8.30;99.70;;;;;;5054008;28;20021;-49
2022/02/02 23:01:43;;;;;;;6.70;2.25;;;8.30;99.70;;;;;;5058510;28;20044;-49
2022/02/02 23:04:08;;;;;;;3.53;2.40;;;8.30;99.70;;;;;;5058131;28;20112;-49
2022/02/02 23:06:35;;;;;;;4.05;2.28;;;8.30;99.70;;;;;;5061513;28;20116;-49
2022/02/02 23:09:03;;;;;;;3.92;2.30;;;8.30;99.70;;;;;;5064340;28;20493;-49
2022/02/02 23:11:29;;;;;;;4.55;2.53;;;8.30;99.70;;;;;;5061559;28;20036;-49
2022/02/02 23:13:55;;;;;;;2.85;1.80;;;8.30;99.70;;;;;;5059852;28;20335;-49
2022/02/02 23:16:27;;;;;;;2.42;1.95;;;8.30;99.70;;;;;;5057542;28;20025;-50
2022/02/02 23:18:53;;;;;;;3.40;2.13;;;8.30;99.70;;;;;;5065307;28;20069;-49
2022/02/02 23:21:22;;;;;;;9.40;2.22;;;8.30;99.80;;;;;;5062183;28;20370;-49
2022/02/02 23:23:49;;;;;;;2.35;1.48;;;8.30;99.80;;;;;;5062133;28;20473;-49
2022/02/02 23:26:16;;;;;;;3.63;1.98;;;8.30;99.80;;;;;;5061922;28;20453;-49
2022/02/02 23:28:46;;;;;;;4.18;2.00;;;8.30;99.70;;;;;;5061075;28;20032;-49
2022/02/02 23:31:14;;;;;;;2.47;1.92;;;8.30;99.80;;;;;;5062343;28;20036;-49
2022/02/02 23:33:41;;;;;;;2.17;1.55;;;8.30;99.80;;;;;;5062497;28;20025;-49
2022/02/02 23:36:09;;;;;;;2.75;1.77;;;8.30;99.80;;;;;;5060222;28;20040;-49
2022/02/02 23:38:35;;;;;;;4.28;1.42;;;8.30;99.80;;;;;;5062743;28;20349;-49
2022/02/02 23:43:29;;;;;;;2.00;1.63;;;8.30;99.80;;;;;;5060277;28;20113;-49
2022/02/02 23:46:11;;;;;;;4.30;1.88;;;8.30;99.80;;;;;;5060774;28;20424;-49
2022/02/02 23:49:05;;;;;;;4.75;1.80;;;8.30;99.80;;;;;;5063890;28;20032;-49
2022/02/02 23:51:36;;;;;;;4.68;1.73;;;8.40;99.80;;;;;;5063605;28;20319;-49
2022/02/02 23:54:04;;;;;;;;;;;8.40;99.90;;;;;;5064019;28;20100;-49